Time;durP1;ratioP1;P1;durP2;ratioP2;P2;SDS_P1;SDS_P2;PMS_P1;PMS_P2;Temp;Humidity;BMP_temperature;BMP_pressure;BME280_temperature;BME280_humidity;BME280_pressure;Samples;Min_cycle;Max_cycle;Signal;HPM_P1;HPM_P2
2022/10/09 00:02:36;;;;;;;7.65;3.40;;;;;;;;;;6155442;23;20061;-74
2022/10/09 00:05:22;;;;;;;10.57;3.83;;;;;;;;;;6155103;23;20017;-72
2022/10/09 00:08:07;;;;;;;6.90;3.22;;;;;;;;;;6176094;23;20101;-71
2022/10/09 00:10:53;;;;;;;7.55;2.92;;;;;;;;;;6155177;23;20012;-69
2022/10/09 00:13:38;;;;;;;6.10;3.83;;;;;;;;;;6155847;22;20009;-70
2022/10/09 00:16:24;;;;;;;9.07;3.53;;;;;;;;;;6155017;23;20035;-71
2022/10/09 00:19:09;;;;;;;7.93;3.70;;;;;;;;;;6161420;22;20102;-71
2022/10/09 00:21:54;;;;;;;5.80;3.50;;;;;;;;;;6155285;22;20016;-71
2022/10/09 00:24:41;;;;;;;6.50;3.17;;;;;;;;;;6154452;23;20012;-70
2022/10/09 00:27:26;;;;;;;9.23;3.78;;;;;;;;;;6154738;22;20001;-69
2022/10/09 00:30:11;;;;;;;10.25;4.13;;;;;;;;;;6154424;23;20455;-71
2022/10/09 00:32:56;;;;;;;7.43;3.35;;;;;;;;;;6154509;23;20025;-69
2022/10/09 00:35:42;;;;;;;14.25;4.95;;;;;;;;;;6154057;23;20013;-69
2022/10/09 00:38:27;;;;;;;8.18;2.92;;;;;;;;;;6155136;23;20005;-69
2022/10/09 00:41:14;;;;;;;7.10;3.13;;;;;;;;;;6154987;22;20051;-73
2022/10/09 00:44:00;;;;;;;6.68;3.10;;;;;;;;;;6154505;22;20009;-74
2022/10/09 00:46:48;;;;;;;7.40;3.40;;;;;;;;;;6154804;22;20050;-72
2022/10/09 00:49:33;;;;;;;7.85;4.03;;;;;;;;;;6157825;23;20038;-71
2022/10/09 00:52:20;;;;;;;6.53;3.30;;;;;;;;;;6157388;23;20001;-71
2022/10/09 00:55:07;;;;;;;10.18;3.22;;;;;;;;;;6154368;22;20001;-73
2022/10/09 00:57:53;;;;;;;6.43;3.13;;;;;;;;;;6134741;23;20005;-71
2022/10/09 01:00:38;;;;;;;6.68;3.30;;;;;;;;;;6154407;22;20009;-72
2022/10/09 01:03:24;;;;;;;8.30;3.72;;;;;;;;;;6154587;22;20084;-69
2022/10/09 01:06:13;;;;;;;9.13;3.40;;;;;;;;;;6154894;23;20005;-69
2022/10/09 01:09:01;;;;;;;7.60;3.60;;;;;;;;;;6175035;23;20009;-68
2022/10/09 01:11:46;;;;;;;7.72;3.15;;;;;;;;;;6155308;23;20016;-67
2022/10/09 01:14:36;;;;;;;4.95;2.80;;;;;;;;;;6153241;23;20035;-68
2022/10/09 01:17:22;;;;;;;;;;;;;;;;;;6154922;22;20005;-72
2022/10/09 01:20:26;;;;;;;5.88;3.15;;;;;;;;;;6175901;23;19935;-73
2022/10/09 01:23:27;;;;;;;8.48;3.50;;;;;;;;;;6140385;23;20009;-74
2022/10/09 01:26:15;;;;;;;7.72;3.50;;;;;;;;;;6154388;23;20016;-74
2022/10/09 01:29:03;;;;;;;6.93;3.60;;;;;;;;;;6154858;23;20017;-75
2022/10/09 01:31:50;;;;;;;7.57;3.33;;;;;;;;;;6154327;23;20068;-74
2022/10/09 01:34:37;;;;;;;9.10;4.35;;;;;;;;;;6154510;23;20442;-75
2022/10/09 01:37:23;;;;;;;5.45;3.03;;;;;;;;;;6175226;23;20001;-72
2022/10/09 01:40:09;;;;;;;4.60;3.00;;;;;;;;;;6154364;22;20418;-74
2022/10/09 01:42:55;;;;;;;7.25;3.95;;;;;;;;;;6154530;23;20095;-73
2022/10/09 01:45:42;;;;;;;9.77;3.65;;;;;;;;;;6133360;23;20416;-73
2022/10/09 01:48:27;;;;;;;12.15;3.78;;;;;;;;;;6154082;22;20087;-73
2022/10/09 01:51:14;;;;;;;6.93;2.92;;;;;;;;;;6153636;23;20020;-73
2022/10/09 01:54:00;;;;;;;8.77;4.05;;;;;;;;;;6159548;23;20296;-70
2022/10/09 01:56:47;;;;;;;6.50;3.33;;;;;;;;;;6154937;23;20485;-68
2022/10/09 01:59:35;;;;;;;5.53;3.03;;;;;;;;;;6174210;23;20501;-70
2022/10/09 02:02:21;;;;;;;10.30;4.43;;;;;;;;;;6174876;23;20012;-70
2022/10/09 02:05:07;;;;;;;7.18;3.13;;;;;;;;;;6154268;23;20080;-69
2022/10/09 02:07:53;;;;;;;6.60;3.10;;;;;;;;;;6153692;23;20015;-69
2022/10/09 02:10:39;;;;;;;10.00;4.50;;;;;;;;;;6154721;22;20062;-69
2022/10/09 02:13:25;;;;;;;19.42;5.47;;;;;;;;;;6153811;22;20055;-73
2022/10/09 02:16:16;;;;;;;7.88;2.78;;;;;;;;;;6154124;23;20009;-71
2022/10/09 02:19:16;;;;;;;6.93;3.20;;;;;;;;;;6133327;23;20340;-72
2022/10/09 02:22:13;;;;;;;7.28;3.20;;;;;;;;;;6153517;23;20005;-72
2022/10/09 02:24:59;;;;;;;9.65;3.75;;;;;;;;;;6156429;22;20023;-72
2022/10/09 02:27:45;;;;;;;8.48;4.07;;;;;;;;;;6158380;22;20015;-71
2022/10/09 02:30:38;;;;;;;5.63;3.28;;;;;;;;;;6174580;23;20073;-71
2022/10/09 02:33:29;;;;;;;8.75;4.82;;;;;;;;;;6153141;23;20432;-72
2022/10/09 02:36:14;;;;;;;7.93;3.72;;;;;;;;;;6174349;23;20341;-71
2022/10/09 02:38:59;;;;;;;10.90;3.45;;;;;;;;;;6154387;23;20005;-72
2022/10/09 02:41:45;;;;;;;8.20;3.33;;;;;;;;;;6153304;22;20005;-71
2022/10/09 02:44:30;;;;;;;7.85;3.30;;;;;;;;;;6154517;23;20073;-71
2022/10/09 02:47:15;;;;;;;6.15;3.10;;;;;;;;;;6132766;23;20008;-71
2022/10/09 02:50:00;;;;;;;7.95;3.08;;;;;;;;;;6154510;23;20039;-68
2022/10/09 02:52:45;;;;;;;7.38;3.45;;;;;;;;;;6153393;23;20036;-69
2022/10/09 02:55:31;;;;;;;8.40;3.80;;;;;;;;;;6153643;23;20037;-69
2022/10/09 02:58:16;;;;;;;7.60;3.38;;;;;;;;;;6160649;23;20009;-69
2022/10/09 03:01:02;;;;;;;5.07;3.08;;;;;;;;;;6151602;23;20012;-70
2022/10/09 03:03:47;;;;;;;5.88;3.00;;;;;;;;;;6174868;23;20017;-71
2022/10/09 03:06:33;;;;;;;6.82;2.90;;;;;;;;;;6155689;23;20013;-70
2022/10/09 03:09:18;;;;;;;6.63;3.15;;;;;;;;;;6155642;22;20017;-69
2022/10/09 03:12:03;;;;;;;9.52;3.38;;;;;;;;;;6155244;23;20009;-71
2022/10/09 03:14:48;;;;;;;4.28;3.03;;;;;;;;;;6156315;22;20048;-72
2022/10/09 03:17:34;;;;;;;6.70;2.58;;;;;;;;;;6155138;23;20005;-72
2022/10/09 03:20:19;;;;;;;7.15;3.45;;;;;;;;;;6155670;23;20015;-71
2022/10/09 03:23:04;;;;;;;6.15;2.67;;;;;;;;;;6176337;23;20037;-72
2022/10/09 03:25:57;;;;;;;9.18;3.65;;;;;;;;;;6155554;23;20016;-70
2022/10/09 03:28:43;;;;;;;6.55;3.10;;;;;;;;;;6176272;23;20382;-72
2022/10/09 03:31:28;;;;;;;6.13;3.40;;;;;;;;;;6139981;23;20574;-69
2022/10/09 03:34:13;;;;;;;7.13;2.55;;;;;;;;;;6155883;23;20020;-70
2022/10/09 03:36:58;;;;;;;4.32;2.70;;;;;;;;;;6155307;23;20005;-69
2022/10/09 03:39:44;;;;;;;4.43;2.60;;;;;;;;;;6155235;23;20037;-69
2022/10/09 03:42:29;;;;;;;6.18;3.30;;;;;;;;;;6154765;23;20052;-69
2022/10/09 03:45:14;;;;;;;5.95;2.60;;;;;;;;;;6155327;23;20451;-72
2022/10/09 03:47:59;;;;;;;6.97;2.80;;;;;;;;;;6155119;23;20005;-74
2022/10/09 03:50:45;;;;;;;8.13;3.10;;;;;;;;;;6155413;23;20004;-75
2022/10/09 03:53:30;;;;;;;6.03;2.92;;;;;;;;;;6156309;22;20001;-75
2022/10/09 03:56:15;;;;;;;6.38;3.05;;;;;;;;;;6134656;23;20005;-75
2022/10/09 03:59:00;;;;;;;5.20;2.90;;;;;;;;;;6155479;23;20005;-75
2022/10/09 04:01:46;;;;;;;6.43;2.88;;;;;;;;;;6159519;23;20337;-75
2022/10/09 04:04:31;;;;;;;6.13;2.63;;;;;;;;;;6157334;22;20005;-69
2022/10/09 04:07:16;;;;;;;8.52;3.05;;;;;;;;;;6153446;23;20375;-72
2022/10/09 04:10:02;;;;;;;12.35;3.67;;;;;;;;;;6155844;23;20017;-69
2022/10/09 04:12:48;;;;;;;5.22;3.35;;;;;;;;;;6134449;23;20359;-71
2022/10/09 04:15:34;;;;;;;5.80;2.92;;;;;;;;;;6154284;23;20001;-68
2022/10/09 04:18:19;;;;;;;9.93;3.53;;;;;;;;;;6155707;22;20032;-68
2022/10/09 04:21:05;;;;;;;6.68;3.05;;;;;;;;;;6154999;22;20550;-75
2022/10/09 04:23:50;;;;;;;5.53;3.72;;;;;;;;;;6155230;22;20020;-70
2022/10/09 04:26:35;;;;;;;6.22;3.15;;;;;;;;;;6154216;23;20019;-71
2022/10/09 04:29:21;;;;;;;7.15;4.03;;;;;;;;;;6155119;22;20096;-70
2022/10/09 04:32:06;;;;;;;5.40;3.00;;;;;;;;;;6154108;22;20044;-69
2022/10/09 04:34:51;;;;;;;5.80;2.75;;;;;;;;;;6161984;23;20033;-71
2022/10/09 04:37:36;;;;;;;6.53;3.03;;;;;;;;;;6134161;23;20037;-70
2022/10/09 04:40:22;;;;;;;8.80;2.60;;;;;;;;;;6154974;23;20009;-76
2022/10/09 04:43:07;;;;;;;7.30;3.45;;;;;;;;;;6134729;22;20009;-74
2022/10/09 04:45:52;;;;;;;6.25;3.28;;;;;;;;;;6153699;23;20079;-73
2022/10/09 04:48:41;;;;;;;4.60;2.80;;;;;;;;;;6154297;23;20044;-75
2022/10/09 04:51:27;;;;;;;3.72;2.70;;;;;;;;;;6155472;23;20010;-73
2022/10/09 04:54:12;;;;;;;8.15;3.25;;;;;;;;;;6154275;23;20005;-73
2022/10/09 04:56:57;;;;;;;6.43;3.35;;;;;;;;;;6155097;23;20005;-73
2022/10/09 04:59:42;;;;;;;6.82;3.45;;;;;;;;;;6153946;23;20444;-70
2022/10/09 05:02:27;;;;;;;4.78;2.70;;;;;;;;;;6154316;23;20009;-70
2022/10/09 05:05:13;;;;;;;5.68;2.80;;;;;;;;;;6155473;23;20009;-71
2022/10/09 05:07:58;;;;;;;7.00;3.13;;;;;;;;;;6157642;23;20009;-70
2022/10/09 05:10:43;;;;;;;7.38;2.97;;;;;;;;;;6155410;23;20009;-71
2022/10/09 05:13:29;;;;;;;5.43;3.00;;;;;;;;;;6154437;22;20096;-71
2022/10/09 05:16:16;;;;;;;4.45;2.67;;;;;;;;;;6153861;23;20088;-67
2022/10/09 05:19:01;;;;;;;5.50;2.67;;;;;;;;;;6154996;22;20058;-68
2022/10/09 05:21:46;;;;;;;6.93;2.80;;;;;;;;;;6154838;23;20432;-68
2022/10/09 05:24:31;;;;;;;8.90;3.03;;;;;;;;;;6153922;23;20005;-68
2022/10/09 05:27:17;;;;;;;5.95;3.17;;;;;;;;;;6154617;22;20016;-69
2022/10/09 05:30:03;;;;;;;7.32;3.15;;;;;;;;;;6154282;22;20013;-73
2022/10/09 05:32:48;;;;;;;5.05;2.63;;;;;;;;;;6154936;23;20059;-68
2022/10/09 05:35:33;;;;;;;6.55;2.63;;;;;;;;;;6154687;23;20015;-71
2022/10/09 05:38:18;;;;;;;6.90;2.92;;;;;;;;;;6161274;23;20011;-66
2022/10/09 05:41:04;;;;;;;6.25;2.88;;;;;;;;;;6155563;22;20009;-68
2022/10/09 05:43:50;;;;;;;10.45;3.45;;;;;;;;;;6154447;22;20005;-68
2022/10/09 05:46:35;;;;;;;5.90;2.95;;;;;;;;;;6133715;22;20143;-67
2022/10/09 05:49:20;;;;;;;9.93;3.17;;;;;;;;;;6154169;23;20017;-67
2022/10/09 05:52:05;;;;;;;10.38;3.53;;;;;;;;;;6154533;23;20080;-67
2022/10/09 05:54:51;;;;;;;8.82;3.35;;;;;;;;;;6152455;23;20444;-72
2022/10/09 05:57:36;;;;;;;7.10;3.15;;;;;;;;;;6154528;23;20095;-71
2022/10/09 06:00:21;;;;;;;6.18;3.60;;;;;;;;;;6152044;23;20074;-70
2022/10/09 06:03:06;;;;;;;6.53;3.13;;;;;;;;;;6154692;23;20465;-70
2022/10/09 06:05:52;;;;;;;6.18;3.22;;;;;;;;;;6153907;23;20029;-73
2022/10/09 06:08:37;;;;;;;6.00;2.45;;;;;;;;;;6154263;23;20017;-72
2022/10/09 06:11:22;;;;;;;7.70;3.03;;;;;;;;;;6161692;23;20044;-69
2022/10/09 06:14:08;;;;;;;4.93;2.55;;;;;;;;;;6134083;22;20008;-69
2022/10/09 06:16:54;;;;;;;6.55;4.22;;;;;;;;;;6155614;22;20012;-70
2022/10/09 06:19:39;;;;;;;4.53;2.28;;;;;;;;;;6134655;23;20008;-67
2022/10/09 06:22:25;;;;;;;4.35;2.65;;;;;;;;;;6154360;22;20423;-71
2022/10/09 06:25:10;;;;;;;5.32;2.67;;;;;;;;;;6154327;22;20009;-71
2022/10/09 06:27:56;;;;;;;6.85;3.30;;;;;;;;;;6154726;22;20070;-72
2022/10/09 06:30:41;;;;;;;6.63;3.15;;;;;;;;;;6174110;23;20009;-71
2022/10/09 06:33:31;;;;;;;6.28;3.20;;;;;;;;;;6152458;23;20009;-74
2022/10/09 06:36:17;;;;;;;7.68;2.90;;;;;;;;;;6154179;22;20012;-74
2022/10/09 06:39:04;;;;;;;5.80;2.97;;;;;;;;;;6174076;23;20451;-73
2022/10/09 06:41:49;;;;;;;9.02;3.30;;;;;;;;;;6158136;23;20060;-77
2022/10/09 06:44:34;;;;;;;5.90;2.97;;;;;;;;;;6155178;23;20012;-75
2022/10/09 06:47:20;;;;;;;5.45;3.83;;;;;;;;;;6153506;23;20455;-73
2022/10/09 06:50:05;;;;;;;12.80;3.67;;;;;;;;;;6134096;23;20095;-69
2022/10/09 06:52:50;;;;;;;8.13;3.53;;;;;;;;;;6175175;23;20005;-76
2022/10/09 06:55:36;;;;;;;8.15;3.58;;;;;;;;;;6154385;23;20012;-75
2022/10/09 06:58:21;;;;;;;5.95;3.28;;;;;;;;;;6153525;23;20005;-76
2022/10/09 07:01:09;;;;;;;5.63;3.30;;;;;;;;;;6152877;23;20297;-76
2022/10/09 07:03:56;;;;;;;6.35;3.40;;;;;;;;;;6154215;22;20072;-76
2022/10/09 07:06:42;;;;;;;7.25;3.83;;;;;;;;;;6155152;22;20015;-73
2022/10/09 07:09:28;;;;;;;6.25;3.65;;;;;;;;;;6153084;23;20306;-71
2022/10/09 07:12:13;;;;;;;6.97;3.92;;;;;;;;;;6154805;23;20096;-73
2022/10/09 07:14:58;;;;;;;5.53;3.35;;;;;;;;;;6138053;22;20036;-72
2022/10/09 07:17:43;;;;;;;5.82;3.13;;;;;;;;;;6153257;23;20009;-75
2022/10/09 07:20:28;;;;;;;7.15;3.67;;;;;;;;;;6152900;23;20363;-76
2022/10/09 07:23:14;;;;;;;8.57;3.80;;;;;;;;;;6133483;22;20039;-72
2022/10/09 07:26:00;;;;;;;8.27;3.60;;;;;;;;;;6133638;23;20018;-68
2022/10/09 07:28:45;;;;;;;8.90;2.80;;;;;;;;;;6153174;22;20006;-76
2022/10/09 07:31:30;;;;;;;8.13;3.53;;;;;;;;;;6154019;22;20009;-75
2022/10/09 07:34:16;;;;;;;7.07;3.15;;;;;;;;;;6153760;22;20084;-75
2022/10/09 07:37:01;;;;;;;5.85;3.63;;;;;;;;;;6133691;23;20009;-77
2022/10/09 07:39:46;;;;;;;9.23;3.70;;;;;;;;;;6152812;23;20028;-73
2022/10/09 07:42:31;;;;;;;6.25;4.00;;;;;;;;;;6132708;22;20051;-78
2022/10/09 07:45:16;;;;;;;8.73;4.10;;;;;;;;;;6155806;23;20008;-71
2022/10/09 07:48:02;;;;;;;9.30;4.70;;;;;;;;;;6157021;23;20009;-76
2022/10/09 07:50:47;;;;;;;8.25;4.43;;;;;;;;;;6154987;22;20439;-75
2022/10/09 07:53:32;;;;;;;10.60;5.20;;;;;;;;;;6154390;23;20013;-77
2022/10/09 07:56:19;;;;;;;8.23;4.18;;;;;;;;;;6155435;23;20005;-76
2022/10/09 07:59:05;;;;;;;7.57;4.10;;;;;;;;;;6154702;22;20009;-75
2022/10/09 08:01:51;;;;;;;10.35;5.30;;;;;;;;;;6155736;22;20001;-73
2022/10/09 08:04:36;;;;;;;7.82;4.25;;;;;;;;;;6155467;23;20028;-72
2022/10/09 08:07:21;;;;;;;8.02;4.35;;;;;;;;;;6154392;23;20425;-74
2022/10/09 08:10:07;;;;;;;7.90;3.95;;;;;;;;;;6155275;23;20045;-74
2022/10/09 08:12:52;;;;;;;8.50;4.38;;;;;;;;;;6154294;23;20086;-74
2022/10/09 08:15:43;;;;;;;7.03;4.03;;;;;;;;;;6153755;23;20505;-74
2022/10/09 08:18:29;;;;;;;8.73;4.00;;;;;;;;;;6162350;22;20234;-74
2022/10/09 08:21:15;;;;;;;9.38;4.10;;;;;;;;;;6155644;23;20005;-82
2022/10/09 08:24:00;;;;;;;10.30;4.40;;;;;;;;;;6155657;22;20013;-62
2022/10/09 08:26:45;;;;;;;6.75;3.42;;;;;;;;;;6154373;23;20001;-65
2022/10/09 08:29:31;;;;;;;8.75;4.20;;;;;;;;;;6154190;23;20074;-60
2022/10/09 08:32:16;;;;;;;9.13;4.00;;;;;;;;;;6154804;23;20079;-60
2022/10/09 08:35:01;;;;;;;11.82;4.50;;;;;;;;;;6154789;23;20005;-62
2022/10/09 08:37:46;;;;;;;11.95;4.88;;;;;;;;;;6154700;23;20015;-62
2022/10/09 08:40:40;;;;;;;6.65;3.45;;;;;;;;;;6155711;23;20008;-68
2022/10/09 08:43:33;;;;;;;5.88;3.55;;;;;;;;;;6154411;22;20451;-73
2022/10/09 08:46:27;;;;;;;9.13;4.00;;;;;;;;;;6154302;22;20009;-71
2022/10/09 08:49:32;;;;;;;6.93;3.20;;;;;;;;;;6156026;23;20020;-69
2022/10/09 08:52:54;;;;;;;7.28;3.55;;;;;;;;;;6158491;22;20047;-73
2022/10/09 08:55:58;;;;;;;15.43;3.55;;;;;;;;;;6121821;23;20009;-69
2022/10/09 08:58:43;;;;;;;6.32;3.05;;;;;;;;;;6174977;23;20080;-61
2022/10/09 09:01:32;;;;;;;6.80;3.50;;;;;;;;;;6154022;23;20055;-62
2022/10/09 09:04:44;;;;;;;6.75;3.08;;;;;;;;;;6174773;23;20009;-61
2022/10/09 09:07:51;;;;;;;7.10;3.10;;;;;;;;;;6147201;23;20054;-62
2022/10/09 09:10:41;;;;;;;8.52;3.10;;;;;;;;;;6156821;22;20009;-65
2022/10/09 09:13:45;;;;;;;8.07;2.67;;;;;;;;;;6155750;22;20005;-66
2022/10/09 09:16:37;;;;;;;7.40;3.35;;;;;;;;;;6155675;22;20009;-66
2022/10/09 09:19:32;;;;;;;9.10;3.10;;;;;;;;;;6156062;22;20009;-61
2022/10/09 09:22:17;;;;;;;7.30;2.88;;;;;;;;;;6158763;22;20005;-63
2022/10/09 09:25:13;;;;;;;7.03;2.38;;;;;;;;;;6158778;23;20009;-65
2022/10/09 09:28:01;;;;;;;5.20;2.22;;;;;;;;;;6152109;22;20028;-62
2022/10/09 09:30:49;;;;;;;4.53;2.50;;;;;;;;;;6153390;22;20013;-63
2022/10/09 09:33:38;;;;;;;5.18;2.15;;;;;;;;;;6175021;23;20009;-61
2022/10/09 09:36:23;;;;;;;;;;;;;;;;;;6156103;22;20013;-58
2022/10/09 09:39:10;;;;;;;2.22;1.70;;;;;;;;;;6155170;23;19904;-58
2022/10/09 09:41:59;;;;;;;4.05;2.10;;;;;;;;;;6155080;22;20310;-59
2022/10/09 09:44:56;;;;;;;6.07;2.28;;;;;;;;;;6154542;23;20075;-59
2022/10/09 09:47:46;;;;;;;5.85;2.30;;;;;;;;;;6154156;23;20284;-59
2022/10/09 09:50:34;;;;;;;4.95;2.00;;;;;;;;;;6153878;23;20097;-58
2022/10/09 09:53:19;;;;;;;4.40;1.80;;;;;;;;;;6154369;23;20005;-60
2022/10/09 09:56:04;;;;;;;5.97;1.70;;;;;;;;;;6160627;22;20418;-61
2022/10/09 09:58:52;;;;;;;5.05;1.80;;;;;;;;;;6175136;23;20005;-59
2022/10/09 10:01:37;;;;;;;5.28;2.00;;;;;;;;;;6153878;22;20007;-58
2022/10/09 10:04:27;;;;;;;3.65;1.95;;;;;;;;;;6154400;23;20433;-58
2022/10/09 10:07:12;;;;;;;5.43;1.98;;;;;;;;;;6155040;22;20032;-59
2022/10/09 10:10:03;;;;;;;6.65;2.50;;;;;;;;;;6154735;23;20052;-59
2022/10/09 10:12:52;;;;;;;5.00;1.73;;;;;;;;;;6153916;22;20008;-61
2022/10/09 10:15:37;;;;;;;4.95;2.17;;;;;;;;;;6154579;22;20008;-59
2022/10/09 10:18:28;;;;;;;2.90;1.30;;;;;;;;;;6154743;23;20009;-56
2022/10/09 10:21:14;;;;;;;4.40;1.90;;;;;;;;;;6154525;22;20017;-57
2022/10/09 10:24:02;;;;;;;3.90;1.40;;;;;;;;;;6155010;22;20016;-58
2022/10/09 10:26:54;;;;;;;3.42;1.40;;;;;;;;;;6224438;22;19995;-59
2022/10/09 10:29:44;;;;;;;5.45;2.38;;;;;;;;;;6301561;22;20330;-68
2022/10/09 10:32:52;;;;;;;3.60;1.40;;;;;;;;;;6154426;23;20001;-60
2022/10/09 10:35:39;;;;;;;6.50;2.15;;;;;;;;;;6152566;23;20340;-63
2022/10/09 10:38:28;;;;;;;4.00;1.75;;;;;;;;;;6153957;23;20039;-60
2022/10/09 10:41:22;;;;;;;5.80;2.17;;;;;;;;;;6153383;22;20048;-61
2022/10/09 10:44:26;;;;;;;3.80;1.70;;;;;;;;;;6155147;22;20108;-62
2022/10/09 10:47:15;;;;;;;4.72;1.63;;;;;;;;;;6153822;22;20063;-62
2022/10/09 10:50:00;;;;;;;3.17;1.65;;;;;;;;;;6154613;23;20413;-60
2022/10/09 10:53:01;;;;;;;5.60;1.90;;;;;;;;;;6153952;22;20005;-63
2022/10/09 10:55:46;;;;;;;4.22;1.70;;;;;;;;;;6153820;22;20151;-63
2022/10/09 10:58:41;;;;;;;2.17;1.63;;;;;;;;;;6158651;22;20230;-63
2022/10/09 11:01:26;;;;;;;7.22;2.08;;;;;;;;;;6152528;22;20009;-63
2022/10/09 11:04:30;;;;;;;6.20;1.52;;;;;;;;;;6152168;22;20031;-64
2022/10/09 11:07:30;;;;;;;5.90;1.77;;;;;;;;;;6151935;22;20316;-62
2022/10/09 11:10:21;;;;;;;5.47;2.03;;;;;;;;;;6152030;23;20378;-73
2022/10/09 11:13:12;;;;;;;3.83;1.75;;;;;;;;;;6153750;23;20037;-69
2022/10/09 11:16:03;;;;;;;6.85;2.10;;;;;;;;;;6154385;23;20093;-72
2022/10/09 11:18:56;;;;;;;7.63;1.70;;;;;;;;;;6153838;23;20096;-70
2022/10/09 11:21:45;;;;;;;4.55;2.00;;;;;;;;;;6132759;23;20372;-70
2022/10/09 11:24:45;;;;;;;7.85;2.35;;;;;;;;;;6154874;22;20503;-62
2022/10/09 11:27:41;;;;;;;3.45;1.50;;;;;;;;;;6135398;22;20013;-63
2022/10/09 11:30:29;;;;;;;3.58;1.77;;;;;;;;;;6160482;22;20005;-66
2022/10/09 11:33:26;;;;;;;4.60;2.00;;;;;;;;;;6158204;22;20013;-65
2022/10/09 11:36:21;;;;;;;4.40;1.80;;;;;;;;;;6154295;23;20080;-65
2022/10/09 11:39:14;;;;;;;4.57;2.00;;;;;;;;;;6155313;23;20365;-62
2022/10/09 11:42:00;;;;;;;5.68;1.73;;;;;;;;;;6155943;23;20009;-65
2022/10/09 11:45:08;;;;;;;2.55;1.40;;;;;;;;;;6155327;23;20136;-68
2022/10/09 11:47:53;;;;;;;6.00;2.00;;;;;;;;;;6155554;23;20016;-62
2022/10/09 11:50:53;;;;;;;2.95;1.40;;;;;;;;;;6156449;23;20421;-63
2022/10/09 11:53:38;;;;;;;3.03;1.88;;;;;;;;;;6155636;22;20016;-62
2022/10/09 11:56:25;;;;;;;2.75;1.27;;;;;;;;;;6156390;23;20066;-63
2022/10/09 11:59:19;;;;;;;4.72;1.90;;;;;;;;;;6155850;22;20005;-65
2022/10/09 12:02:25;;;;;;;5.32;1.60;;;;;;;;;;6158450;23;20012;-70
2022/10/09 12:05:16;;;;;;;2.38;1.60;;;;;;;;;;6158084;23;20035;-63
2022/10/09 12:08:05;;;;;;;2.95;1.50;;;;;;;;;;6155358;22;20011;-65
2022/10/09 12:10:56;;;;;;;4.72;1.38;;;;;;;;;;6152981;23;20001;-63
2022/10/09 12:13:41;;;;;;;3.65;1.50;;;;;;;;;;6155265;22;20015;-61
2022/10/09 12:16:43;;;;;;;7.78;2.35;;;;;;;;;;6153432;23;20488;-62
2022/10/09 12:19:36;;;;;;;3.83;1.75;;;;;;;;;;6154441;22;20096;-63
2022/10/09 12:22:24;;;;;;;3.70;1.30;;;;;;;;;;6154986;22;20017;-60
2022/10/09 12:25:29;;;;;;;3.80;1.48;;;;;;;;;;6154714;23;20017;-59
2022/10/09 12:28:20;;;;;;;4.93;2.08;;;;;;;;;;6176334;23;20005;-60
2022/10/09 12:31:13;;;;;;;2.58;1.45;;;;;;;;;;6155665;22;20001;-60
2022/10/09 12:34:01;;;;;;;3.42;1.60;;;;;;;;;;6157597;22;20004;-60
2022/10/09 12:36:46;;;;;;;4.40;1.40;;;;;;;;;;6156638;23;20468;-59
2022/10/09 12:39:32;;;;;;;2.97;1.35;;;;;;;;;;6152541;23;20044;-68
2022/10/09 12:42:20;;;;;;;3.65;1.52;;;;;;;;;;6154648;23;20034;-62
2022/10/09 12:45:05;;;;;;;3.00;1.60;;;;;;;;;;6155154;22;20447;-65
2022/10/09 12:47:52;;;;;;;3.05;1.88;;;;;;;;;;6154917;23;20032;-64
2022/10/09 12:50:37;;;;;;;4.15;1.70;;;;;;;;;;6155250;22;20051;-63
2022/10/09 12:53:24;;;;;;;3.03;1.58;;;;;;;;;;6174807;23;20075;-64
2022/10/09 12:56:10;;;;;;;1.80;1.08;;;;;;;;;;6155154;23;20005;-69
2022/10/09 12:58:56;;;;;;;2.55;1.40;;;;;;;;;;6154503;23;20062;-67
2022/10/09 13:01:42;;;;;;;3.53;1.90;;;;;;;;;;6154745;22;20119;-59
2022/10/09 13:04:31;;;;;;;4.32;2.10;;;;;;;;;;6155534;22;20001;-63
2022/10/09 13:07:18;;;;;;;2.17;1.38;;;;;;;;;;6160766;23;20087;-59
2022/10/09 13:10:05;;;;;;;4.38;1.90;;;;;;;;;;6152714;23;20021;-61
2022/10/09 13:12:52;;;;;;;4.88;1.50;;;;;;;;;;6153802;22;20006;-74
2022/10/09 13:15:37;;;;;;;3.95;1.67;;;;;;;;;;6153753;22;20012;-74
2022/10/09 13:18:22;;;;;;;4.82;1.55;;;;;;;;;;6154638;22;20016;-69
2022/10/09 13:21:27;;;;;;;2.75;1.52;;;;;;;;;;6153096;23;20044;-69
2022/10/09 13:24:13;;;;;;;2.00;1.40;;;;;;;;;;6154665;22;20009;-69
2022/10/09 13:26:58;;;;;;;2.70;1.42;;;;;;;;;;6154838;23;20383;-69
2022/10/09 13:29:44;;;;;;;3.75;1.95;;;;;;;;;;6155173;22;20084;-69
2022/10/09 13:32:29;;;;;;;3.85;1.90;;;;;;;;;;6155234;22;20297;-70
2022/10/09 13:35:15;;;;;;;3.97;1.77;;;;;;;;;;6155623;23;20005;-75
2022/10/09 13:38:00;;;;;;;2.42;1.50;;;;;;;;;;6157227;23;20096;-69
2022/10/09 13:40:46;;;;;;;4.43;1.90;;;;;;;;;;6158901;23;20001;-69
2022/10/09 13:43:31;;;;;;;4.05;1.63;;;;;;;;;;6175399;23;20009;-69
2022/10/09 13:46:17;;;;;;;4.18;1.92;;;;;;;;;;6175650;23;20008;-68
2022/10/09 13:49:02;;;;;;;5.15;1.80;;;;;;;;;;6154369;23;20043;-69
2022/10/09 13:51:47;;;;;;;6.75;3.00;;;;;;;;;;6154364;23;20084;-70
2022/10/09 13:54:32;;;;;;;6.32;1.95;;;;;;;;;;6154703;23;20008;-74
2022/10/09 13:57:17;;;;;;;4.43;1.80;;;;;;;;;;6154625;23;20005;-75
2022/10/09 14:00:04;;;;;;;5.32;1.75;;;;;;;;;;6154672;23;20428;-73
2022/10/09 14:02:49;;;;;;;4.10;1.85;;;;;;;;;;6175796;23;20009;-73
2022/10/09 14:05:34;;;;;;;4.88;1.92;;;;;;;;;;6154860;23;20416;-73
2022/10/09 14:08:21;;;;;;;4.43;1.73;;;;;;;;;;6154167;23;20363;-74
2022/10/09 14:11:06;;;;;;;7.72;1.85;;;;;;;;;;6161973;23;19997;-72
2022/10/09 14:13:51;;;;;;;2.33;1.38;;;;;;;;;;6154683;23;20374;-78
2022/10/09 14:16:36;;;;;;;4.72;2.05;;;;;;;;;;6154943;23;20042;-77
2022/10/09 14:19:26;;;;;;;4.88;1.52;;;;;;;;;;6154117;22;20048;-77
2022/10/09 14:22:12;;;;;;;;;;;;;;;;;;6155263;23;20005;-75
2022/10/09 14:24:57;;;;;;;5.03;1.85;;;;;;;;;;6175513;23;19909;-77
2022/10/09 14:27:42;;;;;;;4.55;1.80;;;;;;;;;;6155244;23;20012;-77
2022/10/09 14:30:27;;;;;;;2.85;1.70;;;;;;;;;;6154492;23;20087;-76
2022/10/09 14:33:13;;;;;;;3.85;1.60;;;;;;;;;;6154961;23;20005;-72
2022/10/09 14:36:05;;;;;;;2.22;1.48;;;;;;;;;;6154159;23;20367;-73
2022/10/09 14:38:51;;;;;;;4.60;1.75;;;;;;;;;;6154824;23;20009;-75
2022/10/09 14:41:36;;;;;;;4.95;2.00;;;;;;;;;;6155824;22;20443;-72
2022/10/09 14:44:21;;;;;;;5.13;1.90;;;;;;;;;;6159969;23;20043;-74
2022/10/09 14:47:06;;;;;;;5.93;2.13;;;;;;;;;;6154226;23;20509;-76
2022/10/09 14:49:52;;;;;;;6.47;2.70;;;;;;;;;;6154695;23;20038;-76
2022/10/09 14:52:37;;;;;;;7.00;2.75;;;;;;;;;;6154710;23;20005;-73
2022/10/09 14:55:22;;;;;;;3.30;2.17;;;;;;;;;;6154609;23;20092;-74
2022/10/09 14:58:07;;;;;;;3.35;2.05;;;;;;;;;;6154768;23;20084;-73
2022/10/09 15:00:53;;;;;;;4.93;1.90;;;;;;;;;;6154204;23;20500;-74
2022/10/09 15:03:38;;;;;;;5.35;2.08;;;;;;;;;;6154556;23;20005;-74
2022/10/09 15:06:23;;;;;;;4.45;2.45;;;;;;;;;;6152777;23;20014;-71
2022/10/09 15:09:08;;;;;;;4.93;2.20;;;;;;;;;;6154560;23;20016;-71
2022/10/09 15:11:54;;;;;;;7.60;2.25;;;;;;;;;;6154673;23;20001;-72
2022/10/09 15:14:39;;;;;;;5.85;2.17;;;;;;;;;;6160062;23;20314;-73
2022/10/09 15:17:25;;;;;;;3.00;1.67;;;;;;;;;;6154700;23;20033;-72
2022/10/09 15:20:10;;;;;;;5.45;2.08;;;;;;;;;;6151098;23;20044;-72
2022/10/09 15:22:55;;;;;;;4.25;1.70;;;;;;;;;;6151832;23;20012;-72
2022/10/09 15:25:46;;;;;;;4.93;1.85;;;;;;;;;;6154355;23;20058;-72
2022/10/09 15:28:31;;;;;;;7.30;2.45;;;;;;;;;;6154216;23;20017;-75
2022/10/09 15:31:27;;;;;;;5.03;1.88;;;;;;;;;;6154316;23;20417;-76
2022/10/09 15:34:15;;;;;;;4.95;2.22;;;;;;;;;;6154855;22;20424;-74
2022/10/09 15:37:00;;;;;;;3.83;2.15;;;;;;;;;;6154006;22;20005;-76
2022/10/09 15:39:45;;;;;;;4.55;2.22;;;;;;;;;;6154798;23;20001;-74
2022/10/09 15:42:31;;;;;;;4.70;2.20;;;;;;;;;;6154405;23;20420;-74
2022/10/09 15:45:16;;;;;;;4.88;2.47;;;;;;;;;;6154337;22;20005;-73
2022/10/09 15:48:01;;;;;;;3.63;1.90;;;;;;;;;;6160548;23;20005;-73
2022/10/09 15:50:49;;;;;;;6.28;2.67;;;;;;;;;;6154245;22;20008;-73
2022/10/09 15:53:34;;;;;;;5.72;2.80;;;;;;;;;;6154537;22;20084;-73
2022/10/09 15:56:21;;;;;;;5.00;2.50;;;;;;;;;;6153963;23;20008;-71
2022/10/09 15:59:09;;;;;;;5.00;2.50;;;;;;;;;;6154393;23;20001;-72
2022/10/09 16:01:54;;;;;;;6.88;2.33;;;;;;;;;;6154013;23;20324;-73
2022/10/09 16:04:39;;;;;;;3.83;2.20;;;;;;;;;;6154127;22;20005;-77
2022/10/09 16:07:24;;;;;;;4.10;2.00;;;;;;;;;;6153621;23;20006;-74
2022/10/09 16:10:10;;;;;;;8.60;2.70;;;;;;;;;;6154133;23;20052;-75
2022/10/09 16:12:55;;;;;;;7.95;3.00;;;;;;;;;;6156241;23;20008;-74
2022/10/09 16:15:41;;;;;;;8.75;3.30;;;;;;;;;;6155650;23;20009;-76
2022/10/09 16:18:26;;;;;;;7.55;2.88;;;;;;;;;;6139380;23;20004;-75
2022/10/09 16:21:19;;;;;;;6.55;2.20;;;;;;;;;;6157516;23;20001;-71
2022/10/09 16:24:04;;;;;;;9.35;5.22;;;;;;;;;;6156085;23;20096;-75
2022/10/09 16:26:50;;;;;;;6.90;2.90;;;;;;;;;;6156159;23;20508;-74
2022/10/09 16:29:35;;;;;;;10.00;2.63;;;;;;;;;;6155648;23;20352;-74
2022/10/09 16:32:20;;;;;;;8.43;2.50;;;;;;;;;;6155713;23;20083;-73
2022/10/09 16:35:06;;;;;;;4.88;2.38;;;;;;;;;;6155560;23;20040;-74
2022/10/09 16:37:51;;;;;;;5.10;2.72;;;;;;;;;;6135789;23;20005;-73
2022/10/09 16:43:05;;;;;;;6.57;2.30;;;;;;;;;;6119144;23;20022;-72
2022/10/09 16:45:50;;;;;;;10.50;4.00;;;;;;;;;;6087968;23;20097;-72
2022/10/09 16:48:36;;;;;;;11.68;3.38;;;;;;;;;;6079763;23;20037;-72